Careacu, Brazil
Current Conditions -  °F | °C
As of 1:00 PM on Wednesday 26 Nov 2014 (Local Time) from SBGW Reporting Station
Broken Clouds Broken Clouds  
Wind Chill: 82°   Ceiling: 4800
Heat Index: 85°   Visibility: 6mi
Dew Point: 66°   Wind: 5mph
Humidity: 58%   Direction: 50°NE
Pressure: 29.83"   Gusts: NA
Location:  22.04°S, 45.7°W
Report Text: SBGW 261500Z 05004KT 9999 SCT020 BKN048 28/19 Q1010
Loading
Personal Weather Stations






























Interactive Weather Map New forecast layout! Learn more

10-Day Weather Forecast

Advertisements
Track Severe Weather on mobile